»·PEaware :: TPX780 KLAS-KSAN

TPX780 :: KLAS-KSAN

FLIGHT INFORMATION

Flight Status: Arrived
Operator: ATP Experience
More flights by this operator :: More flights under this callsign
Pilot: Ben F. (2808)
Aircraft: BOEING 737-300
(B733)
More flights by this aircraft type
Origin: KLAS McCarran Intl
United States
Destination: KSAN San Diego Intl-Lindbergh
United States
More flights between these airports :: More routes between these airports
Route: +BOACH8 LVELL LUCKI1
File this flight plan on PilotEdge
Remarks:
Altitude:
(Current/Filed)
28,000ft
Speed:
(Current/Filed)
456kts
Departed: 21-Jul-18 06:47 PM
Arrived: 21-Jul-18 07:33 PM
Distance/Time
Traveled:
225nm/0:46
Distance/Time
To Go:
Arrived

Flight Plot

Page will automatically refresh every two minutes.

Flight plan parsing failed; only flown route is shown


Map Options




Map Legend


Flown Route
Filed Route
Departure Airport
Arrival Airport
Navaid (VOR, NDB)
Fix

Horizontal Profiles

Position Reports

Time Latitude Longitude Heading Altitude Ground
Speed
21-Jul-18 18:18 36.080448 -115.138868 345 2148ft 0kts
21-Jul-18 18:19 36.080448 -115.138868 345 2148ft 0kts
21-Jul-18 18:20 36.080448 -115.138868 345 2148ft 0kts
21-Jul-18 18:21 36.080448 -115.138868 345 2148ft 0kts
21-Jul-18 18:22 36.080448 -115.138868 345 2148ft 0kts
21-Jul-18 18:23 36.080448 -115.138868 345 2148ft 0kts
21-Jul-18 18:24 36.080448 -115.138868 345 2148ft 0kts
21-Jul-18 18:25 36.080448 -115.138868 345 2148ft 0kts
21-Jul-18 18:26 36.080448 -115.138868 345 2148ft 0kts
21-Jul-18 18:27 36.080448 -115.138868 345 2148ft 0kts
21-Jul-18 18:28 36.080448 -115.138868 345 2148ft 0kts
21-Jul-18 18:29 36.080448 -115.138868 345 2148ft 0kts
21-Jul-18 18:30 36.080448 -115.138868 345 2148ft 0kts
21-Jul-18 18:31 36.080448 -115.138868 345 2148ft 0kts
21-Jul-18 18:32 36.080448 -115.138868 345 2148ft 0kts
21-Jul-18 18:33 36.080448 -115.138868 345 2148ft 0kts
21-Jul-18 18:34 36.080448 -115.138868 345 2148ft 0kts
21-Jul-18 18:35 36.080448 -115.138868 345 2148ft 0kts
21-Jul-18 18:36 36.080448 -115.138868 345 2148ft 0kts
21-Jul-18 18:37 36.080448 -115.138868 345 2148ft 0kts
21-Jul-18 18:38 36.080151 -115.138772 345 2148ft 0kts
21-Jul-18 18:39 36.079935 -115.138210 240 2148ft 2kts
21-Jul-18 18:40 36.080034 -115.138069 223 2148ft 0kts
21-Jul-18 18:41 36.079994 -115.138116 223 2148ft 2kts
21-Jul-18 18:42 36.079140 -115.139110 225 2148ft 1kts
21-Jul-18 18:43 36.078244 -115.138007 87 2148ft 16kts
21-Jul-18 18:44 36.078250 -115.131056 90 2148ft 23kts
21-Jul-18 18:45 36.078273 -115.123141 93 2148ft 20kts
21-Jul-18 18:46 36.077338 -115.121430 150 2148ft 0kts
21-Jul-18 18:47 36.076703 -115.121348 196 2148ft 11kts
21-Jul-18 18:48 36.076385 -115.144948 270 2175ft 163kts
21-Jul-18 18:49 36.076717 -115.208350 270 3787ft 207kts
21-Jul-18 18:50 36.039712 -115.269410 199 5140ft 277kts
21-Jul-18 18:51 35.966379 -115.302090 186 6981ft 281kts
21-Jul-18 18:52 35.888519 -115.311353 184 9692ft 289kts
21-Jul-18 18:53 35.806109 -115.309248 174 11896ft 320kts
21-Jul-18 18:54 35.712708 -115.298504 174 13954ft 352kts
21-Jul-18 18:55 35.613840 -115.297034 181 16221ft 365kts
21-Jul-18 18:56 35.511373 -115.301172 181 18461ft 376kts
21-Jul-18 18:57 35.405675 -115.305367 181 20518ft 387kts
21-Jul-18 18:58 35.297453 -115.309620 181 22388ft 398kts
21-Jul-18 18:59 35.186400 -115.313975 181 24071ft 408kts
21-Jul-18 19:00 35.072766 -115.318417 181 25594ft 417kts
21-Jul-18 19:01 34.956832 -115.322936 181 27301ft 419kts
21-Jul-18 19:02 34.846565 -115.327220 181 27997ft 407kts
21-Jul-18 19:03 34.737185 -115.348799 199 27983ft 419kts
21-Jul-18 19:04 34.628254 -115.397687 198 28057ft 422kts
21-Jul-18 19:05 34.519606 -115.445086 198 28073ft 422kts
21-Jul-18 19:06 34.410147 -115.492794 198 28077ft 423kts
21-Jul-18 19:07 34.302362 -115.545522 209 28082ft 426kts
21-Jul-18 19:08 34.202980 -115.618791 202 28068ft 424kts
21-Jul-18 19:09 34.097051 -115.668459 199 28072ft 423kts
21-Jul-18 19:10 33.992261 -115.717922 199 28076ft 424kts
21-Jul-18 19:11 33.887319 -115.767922 200 28040ft 425kts
21-Jul-18 19:12 33.785319 -115.817864 200 27996ft 424kts
21-Jul-18 19:13 33.676631 -115.869067 199 27654ft 414kts
21-Jul-18 19:14 33.573218 -115.917396 200 25172ft 402kts
21-Jul-18 19:15 33.487165 -115.991137 233 23370ft 381kts
21-Jul-18 19:16 33.426463 -116.097271 232 22125ft 375kts
21-Jul-18 19:17 33.366252 -116.200911 233 20932ft 370kts
21-Jul-18 19:18 33.288979 -116.278999 205 19367ft 369kts
21-Jul-18 19:19 33.197422 -116.332155 206 17213ft 361kts
21-Jul-18 19:20 33.108994 -116.383849 206 15279ft 359kts
21-Jul-18 19:21 33.022473 -116.434351 205 13489ft 338kts
21-Jul-18 19:22 32.951416 -116.498738 219 12005ft 308kts
21-Jul-18 19:23 32.891437 -116.559381 219 10448ft 276kts
21-Jul-18 19:24 32.835056 -116.615904 219 9863ft 275kts
21-Jul-18 19:25 32.781501 -116.669893 219 8446ft 269kts
21-Jul-18 19:26 32.742903 -116.743284 239 7117ft 257kts
21-Jul-18 19:27 32.709010 -116.814903 242 6026ft 242kts
21-Jul-18 19:28 32.686006 -116.887255 250 5493ft 230kts
21-Jul-18 19:29 32.679880 -116.956827 316 3871ft 224kts
21-Jul-18 19:30 32.700371 -117.016306 274 2827ft 193kts
21-Jul-18 19:31 32.706411 -117.075057 279 2075ft 171kts
21-Jul-18 19:32 32.717941 -117.123156 286 1208ft 142kts
21-Jul-18 19:33 32.728424 -117.168560 285 304ft 142kts
21-Jul-18 19:34 32.735268 -117.197829 246 24ft 14kts
21-Jul-18 19:35 32.733796 -117.194939 106 24ft 17kts
21-Jul-18 19:36 32.732864 -117.195481 278 24ft 0kts
21-Jul-18 19:37 32.732864 -117.195481 278 24ft 0kts
21-Jul-18 19:38 32.732864 -117.195481 278 24ft 0kts
21-Jul-18 19:39 32.732864 -117.195481 278 24ft 0kts

Navigation Log

Ident Type
Flight plan parsing failed, navigation log unavailable